createdAt,value
2023-03-20T00:01:44.397Z,13.68
2023-03-20T00:05:09.098Z,12.82
2023-03-20T00:08:29.607Z,12.18
2023-03-20T00:12:07.989Z,11.61
2023-03-20T00:15:36.939Z,11.82
2023-03-20T00:18:46.639Z,13.39
2023-03-20T00:22:16.346Z,14.41
2023-03-20T00:25:54.659Z,14.55
2023-03-20T00:28:59.592Z,13.50
2023-03-20T00:32:14.613Z,12.72
2023-03-20T00:35:36.293Z,12.11
2023-03-20T00:39:08.842Z,11.56
2023-03-20T00:42:24.353Z,11.72
2023-03-20T00:45:38.708Z,13.19
2023-03-20T00:49:08.330Z,14.24
2023-03-20T00:52:08.349Z,14.93
2023-03-20T00:55:27.202Z,15.11
2023-03-20T00:58:49.342Z,14.05
2023-03-20T01:02:01.469Z,13.13
2023-03-20T01:05:12.927Z,12.46
2023-03-20T01:08:47.658Z,11.89
2023-03-20T01:12:02.931Z,11.43
2023-03-20T01:15:22.935Z,11.56
2023-03-20T01:18:43.997Z,12.97
2023-03-20T01:21:53.057Z,14.07
2023-03-20T01:25:04.134Z,14.75
2023-03-20T01:28:32.825Z,14.79
2023-03-20T01:31:42.793Z,13.77
2023-03-20T01:34:53.420Z,13.02
2023-03-20T01:38:19.283Z,12.35
2023-03-20T01:41:54.596Z,12.37
2023-03-20T01:45:23.715Z,13.94
2023-03-20T01:48:45.544Z,14.93
2023-03-20T01:52:05.434Z,15.64
2023-03-20T01:55:08.520Z,16.18
2023-03-20T01:58:33.217Z,16.68
2023-03-20T02:01:48.494Z,17.13
2023-03-20T02:04:41.881Z,17.39
2023-03-20T02:08:03.069Z,17.34
2023-03-20T02:11:28.389Z,16.07
2023-03-20T02:14:37.929Z,15.00
2023-03-20T02:17:54.736Z,14.80
2023-03-20T02:21:33.982Z,15.88
2023-03-20T02:25:02.472Z,16.68
2023-03-20T02:28:27.149Z,17.21
2023-03-20T02:31:54.820Z,17.17
2023-03-20T02:35:38.553Z,15.86
2023-03-20T02:39:01.367Z,14.72
2023-03-20T02:42:23.555Z,14.52
2023-03-20T02:46:10.598Z,15.94
2023-03-20T02:49:52.579Z,16.65
2023-03-20T02:53:12.052Z,17.13
2023-03-20T02:56:50.265Z,17.47
2023-03-20T03:00:27.359Z,17.22
2023-03-20T03:03:52.765Z,15.92
2023-03-20T03:13:36.962Z,15.91
2023-03-20T03:16:41.891Z,16.70
2023-03-20T03:20:14.473Z,17.21
2023-03-20T03:23:29.949Z,17.18
2023-03-20T03:26:49.529Z,16.06
2023-03-20T03:29:56.627Z,15.17
2023-03-20T03:33:08.683Z,14.73
2023-03-20T03:40:24.838Z,16.19
2023-03-20T03:43:41.420Z,16.98
2023-03-20T03:46:43.454Z,17.03
2023-03-20T03:50:04.968Z,15.91
2023-03-20T03:53:37.104Z,14.93
2023-03-20T03:56:36.093Z,14.14
2023-03-20T04:00:05.090Z,14.04
2023-03-20T04:03:38.389Z,15.36
2023-03-20T04:06:53.872Z,16.27
2023-03-20T04:10:09.557Z,16.35
2023-03-20T04:13:33.848Z,15.28
2023-03-20T04:16:55.480Z,14.31
2023-03-20T04:20:11.204Z,14.13
2023-03-20T04:23:23.359Z,15.19
2023-03-20T04:26:58.809Z,15.98
2023-03-20T04:30:11.014Z,16.51
2023-03-20T04:33:13.124Z,16.85
2023-03-20T04:37:01.540Z,17.00
2023-03-20T04:40:23.977Z,16.76
2023-03-20T04:43:39.575Z,15.65
2023-03-20T04:47:19.792Z,14.70
2023-03-20T04:50:46.886Z,14.64
2023-03-20T04:53:55.698Z,15.76
2023-03-20T04:57:20.200Z,16.56
2023-03-20T05:00:45.116Z,17.05
2023-03-20T05:04:10.352Z,16.94
2023-03-20T05:07:22.095Z,15.76
2023-03-20T05:10:50.048Z,14.77
2023-03-20T05:14:12.614Z,14.65
2023-03-20T05:17:42.122Z,15.76
2023-03-20T05:21:26.687Z,16.50
2023-03-20T05:25:02.654Z,16.97
2023-03-20T05:28:38.197Z,16.68
2023-03-20T05:32:13.133Z,15.38
2023-03-20T05:35:48.796Z,14.27
2023-03-20T05:39:06.214Z,14.07
2023-03-20T05:42:40.444Z,15.31
2023-03-20T05:46:16.236Z,16.20
2023-03-20T05:49:47.791Z,16.78
2023-03-20T05:53:12.364Z,17.25
2023-03-20T05:56:33.568Z,17.15
2023-03-20T05:59:16.064Z,16.19
2023-03-20T06:02:19.493Z,15.34
2023-03-20T06:04:57.582Z,14.71
2023-03-20T06:07:35.058Z,14.44
2023-03-20T06:10:11.533Z,15.24
2023-03-20T06:12:45.965Z,16.09
2023-03-20T06:15:17.707Z,16.69
2023-03-20T06:18:06.982Z,17.15
2023-03-20T06:20:44.150Z,17.24
2023-03-20T06:23:25.782Z,16.43
2023-03-20T06:25:58.321Z,15.52
2023-03-20T06:28:30.602Z,14.85
2023-03-20T06:31:13.022Z,14.59
2023-03-20T06:33:47.321Z,15.47
2023-03-20T06:36:23.560Z,16.37
2023-03-20T06:38:58.286Z,17.03
2023-03-20T06:41:37.503Z,17.28
2023-03-20T06:44:19.020Z,16.53
2023-03-20T06:47:09.499Z,15.55
2023-03-20T06:49:40.644Z,14.90
2023-03-20T06:52:16.962Z,14.66
2023-03-20T06:54:52.237Z,15.48
2023-03-20T06:57:26.091Z,16.30
2023-03-20T07:00:04.461Z,16.87
2023-03-20T07:02:36.379Z,17.37
2023-03-20T07:05:14.493Z,17.60
2023-03-20T07:07:46.930Z,16.89
2023-03-20T07:10:19.882Z,16.11
2023-03-20T07:12:55.227Z,15.45
2023-03-20T07:15:27.615Z,14.94
2023-03-20T07:17:59.761Z,14.75
2023-03-20T07:20:31.628Z,15.60
2023-03-20T07:23:03.070Z,16.49
2023-03-20T07:25:42.310Z,17.08
2023-03-20T07:28:13.852Z,17.52
2023-03-20T07:30:51.138Z,17.65
2023-03-20T07:33:32.425Z,16.87
2023-03-20T07:36:07.733Z,15.99
2023-03-20T07:38:39.527Z,15.33
2023-03-20T07:41:15.977Z,15.02
2023-03-20T07:43:57.479Z,15.86
2023-03-20T07:46:41.097Z,16.73
2023-03-20T07:49:15.614Z,17.22
2023-03-20T07:51:48.055Z,17.37
2023-03-20T07:54:25.578Z,16.39
2023-03-20T07:56:59.893Z,15.37
2023-03-20T07:59:33.804Z,14.87
2023-03-20T08:02:25.936Z,15.53
2023-03-20T08:05:06.391Z,16.29
2023-03-20T08:08:06.105Z,16.83
2023-03-20T08:10:48.408Z,17.23
2023-03-20T08:13:35.120Z,17.38
2023-03-20T08:16:25.719Z,16.61
2023-03-20T08:19:02.489Z,15.74
2023-03-20T08:21:50.221Z,15.13
2023-03-20T08:24:40.308Z,15.05
2023-03-20T08:27:31.417Z,16.21
2023-03-20T08:30:11.980Z,17.27
2023-03-20T08:32:48.194Z,17.99
2023-03-20T08:35:33.342Z,18.32
2023-03-20T08:38:12.939Z,17.60
2023-03-20T08:40:50.441Z,16.95
2023-03-20T08:43:28.036Z,16.45
2023-03-20T08:46:00.252Z,16.04
2023-03-20T08:48:44.242Z,16.08
2023-03-20T08:51:21.546Z,17.33
2023-03-20T08:53:53.417Z,18.50
2023-03-20T08:56:26.992Z,19.11
2023-03-20T08:59:05.404Z,18.55
2023-03-20T09:01:48.629Z,17.88
2023-03-20T09:04:21.812Z,17.35
2023-03-20T09:07:04.318Z,17.00
2023-03-20T09:09:41.613Z,16.76
2023-03-20T09:12:15.924Z,16.56
2023-03-20T09:14:47.476Z,16.29
2023-03-20T09:17:18.714Z,16.22
2023-03-20T09:19:50.267Z,17.16
2023-03-20T09:22:22.045Z,18.13
2023-03-20T09:24:58.905Z,18.65
2023-03-20T09:27:33.318Z,18.03
2023-03-20T09:30:07.593Z,17.33
2023-03-20T09:32:39.398Z,16.84
2023-03-20T09:35:17.497Z,16.52
2023-03-20T09:37:48.435Z,16.27
2023-03-20T09:40:28.555Z,16.02
2023-03-20T09:43:21.232Z,16.12
2023-03-20T09:45:59.953Z,17.42
2023-03-20T09:48:54.280Z,18.61
2023-03-20T09:52:05.526Z,19.30
2023-03-20T09:54:53.133Z,18.55
2023-03-20T09:57:27.546Z,17.99
2023-03-20T10:00:04.370Z,17.72
2023-03-20T10:03:02.320Z,17.50
2023-03-20T10:05:38.245Z,17.30
2023-03-20T10:08:17.234Z,17.22
2023-03-20T10:10:55.497Z,17.16
2023-03-20T10:14:02.889Z,17.10
2023-03-20T10:16:52.988Z,16.95
2023-03-20T10:19:32.825Z,16.81
2023-03-20T10:22:29.868Z,16.72
2023-03-20T10:25:02.504Z,16.75
2023-03-20T10:27:43.568Z,16.91
2023-03-20T10:30:38.779Z,17.26
2023-03-20T10:33:36.591Z,17.71
2023-03-20T10:36:29.238Z,17.98
2023-03-20T10:39:35.714Z,18.01
2023-03-20T10:42:06.940Z,17.90
2023-03-20T10:44:42.496Z,17.85
2023-03-20T10:47:14.704Z,17.69
2023-03-20T10:50:18.818Z,17.48
2023-03-20T10:52:48.794Z,17.22
2023-03-20T10:55:21.768Z,17.06
2023-03-20T10:58:19.135Z,16.91
2023-03-20T11:00:51.214Z,16.68
2023-03-20T11:03:25.532Z,16.56
2023-03-20T11:06:22.034Z,16.54
2023-03-20T11:08:52.786Z,16.69
2023-03-20T11:11:29.047Z,16.69
2023-03-20T11:13:58.856Z,16.61
2023-03-20T11:16:37.100Z,16.54
2023-03-20T11:19:07.806Z,16.58
2023-03-20T11:21:46.329Z,16.71
2023-03-20T11:24:26.727Z,17.01
2023-03-20T11:26:56.175Z,17.33
2023-03-20T11:29:27.113Z,17.53
2023-03-20T11:31:56.128Z,17.73
2023-03-20T11:34:27.948Z,17.88
2023-03-20T11:37:09.737Z,17.84
2023-03-20T11:39:40.369Z,17.74
2023-03-20T11:42:23.881Z,17.80
2023-03-20T11:45:01.194Z,17.99
2023-03-20T11:47:33.592Z,17.97
2023-03-20T11:50:05.832Z,17.85
2023-03-20T11:52:37.652Z,17.81
2023-03-20T11:55:24.911Z,17.69
2023-03-20T11:57:59.306Z,17.48
2023-03-20T12:00:39.695Z,17.25
2023-03-20T12:03:33.412Z,17.02
2023-03-20T12:06:02.719Z,16.86
2023-03-20T12:08:32.483Z,16.90
2023-03-20T12:11:07.313Z,16.99
2023-03-20T12:13:43.768Z,17.12
2023-03-20T12:16:15.414Z,17.29
2023-03-20T12:18:56.081Z,17.42
2023-03-20T12:21:41.228Z,17.55
2023-03-20T12:24:30.835Z,17.68
2023-03-20T12:27:01.457Z,17.72
2023-03-20T12:29:35.514Z,17.65
2023-03-20T12:32:11.269Z,17.56
2023-03-20T12:34:50.554Z,17.53
2023-03-20T12:37:22.212Z,17.48
2023-03-20T12:39:54.871Z,17.46
2023-03-20T12:42:52.560Z,17.32
2023-03-20T12:45:23.419Z,16.99
2023-03-20T12:48:30.261Z,16.80
2023-03-20T12:51:21.676Z,16.79
2023-03-20T12:54:03.995Z,16.82
2023-03-20T12:56:41.166Z,17.02
2023-03-20T12:59:14.962Z,17.16
2023-03-20T13:01:57.749Z,17.22
2023-03-20T13:04:44.080Z,17.25
2023-03-20T13:07:24.589Z,17.28
2023-03-20T13:10:02.342Z,17.23
2023-03-20T13:12:57.445Z,17.08
2023-03-20T13:15:41.081Z,16.86
2023-03-20T13:18:22.971Z,16.78
2023-03-20T13:20:53.395Z,17.06
2023-03-20T13:23:31.399Z,17.43
2023-03-20T13:26:05.918Z,17.68
2023-03-20T13:28:46.687Z,17.79
2023-03-20T13:31:38.843Z,17.79
2023-03-20T13:34:26.256Z,17.46
2023-03-20T13:37:21.832Z,17.06
2023-03-20T13:40:25.874Z,16.54
2023-03-20T13:43:16.880Z,16.04
2023-03-20T13:45:48.945Z,15.57
2023-03-20T13:48:29.107Z,15.92
2023-03-20T13:51:20.510Z,16.85
2023-03-20T13:54:22.486Z,17.51
2023-03-20T13:57:45.019Z,18.15
2023-03-20T14:01:24.498Z,18.08
2023-03-20T14:04:34.622Z,16.54
2023-03-20T14:12:02.313Z,17.22
2023-03-20T14:25:49.595Z,17.27
2023-03-20T14:29:12.959Z,16.41
2023-03-20T14:32:22.706Z,15.96
2023-03-20T14:35:37.740Z,16.15
2023-03-20T14:39:08.105Z,17.39
2023-03-20T14:42:32.801Z,18.24
2023-03-20T15:14:22.597Z,16.57
2023-03-20T15:17:52.781Z,15.75
2023-03-20T15:20:58.444Z,15.68
2023-03-20T15:24:18.730Z,16.82
2023-03-20T15:27:18.132Z,17.58
2023-03-20T15:30:37.618Z,18.11
2023-03-20T15:33:45.914Z,18.05
2023-03-20T15:36:52.181Z,17.04
2023-03-20T15:40:14.221Z,16.08
2023-03-20T15:43:43.624Z,15.84
2023-03-20T15:46:56.031Z,16.77
2023-03-20T15:50:19.449Z,17.47
2023-03-20T15:53:28.450Z,17.95
2023-03-20T15:56:49.028Z,17.82
2023-03-20T15:59:46.287Z,16.60
2023-03-20T16:02:49.783Z,15.78
2023-03-20T16:06:18.473Z,15.60
2023-03-20T16:09:30.920Z,16.60
2023-03-20T16:12:58.657Z,17.46
2023-03-20T16:16:18.560Z,17.97
2023-03-20T16:19:10.568Z,17.81
2023-03-20T16:22:54.210Z,16.58
2023-03-20T16:26:10.824Z,15.46
2023-03-20T16:29:23.635Z,15.23
2023-03-20T16:33:03.200Z,16.29
2023-03-20T16:36:26.133Z,17.10
2023-03-20T16:39:40.486Z,17.72
2023-03-20T16:42:54.864Z,17.63
2023-03-20T16:46:05.609Z,16.61
2023-03-20T16:49:29.869Z,15.69
2023-03-20T16:52:45.589Z,15.46
2023-03-20T16:56:02.520Z,16.54
2023-03-20T16:59:03.641Z,17.18
2023-03-20T17:03:08.479Z,17.63
2023-03-20T17:06:38.805Z,17.26
2023-03-20T17:17:22.698Z,14.57
2023-03-20T17:20:42.482Z,15.67
2023-03-20T17:27:25.113Z,16.99
2023-03-20T17:30:55.647Z,17.41
2023-03-20T17:34:30.890Z,17.12
2023-03-20T17:37:58.454Z,15.80
2023-03-20T17:41:28.067Z,14.85
2023-03-20T17:44:38.735Z,14.69
2023-03-20T17:48:00.772Z,15.83
2023-03-20T17:51:27.344Z,16.57
2023-03-20T17:54:57.951Z,17.04
2023-03-20T17:58:28.282Z,17.43
2023-03-20T18:01:49.218Z,17.19
2023-03-20T18:05:14.481Z,16.03
2023-03-20T18:08:36.122Z,14.92
2023-03-20T18:12:07.040Z,14.61
2023-03-20T18:15:44.775Z,15.68
2023-03-20T18:19:21.137Z,16.45
2023-03-20T18:22:39.073Z,16.96
2023-03-20T18:26:20.590Z,16.69
2023-03-20T18:29:58.392Z,15.36
2023-03-20T18:33:42.322Z,14.25
2023-03-20T18:37:31.431Z,14.23
2023-03-20T18:41:05.816Z,15.55
2023-03-20T18:44:37.880Z,16.33
2023-03-20T18:47:58.319Z,16.82
2023-03-20T18:51:35.275Z,16.78
2023-03-20T18:54:41.733Z,15.40
2023-03-20T18:58:30.937Z,14.43
2023-03-20T19:02:20.075Z,14.45
2023-03-20T19:05:52.784Z,15.64
2023-03-20T19:09:21.856Z,16.27
2023-03-20T19:12:43.525Z,16.69
2023-03-20T19:16:14.927Z,16.46
2023-03-20T19:19:25.708Z,15.20
2023-03-20T19:23:14.865Z,14.25
2023-03-20T19:26:46.959Z,14.11
2023-03-20T19:30:17.890Z,15.14
2023-03-20T19:34:07.721Z,15.78
2023-03-20T19:37:57.063Z,16.22
2023-03-20T19:41:05.382Z,16.62
2023-03-20T19:44:30.719Z,16.91
2023-03-20T19:48:08.483Z,16.64
2023-03-20T19:51:29.282Z,15.34
2023-03-20T19:55:03.181Z,14.36
2023-03-20T19:58:40.490Z,14.21
2023-03-20T20:02:09.983Z,15.23
2023-03-20T20:05:49.856Z,15.94
2023-03-20T20:09:39.017Z,16.52
2023-03-20T20:13:27.659Z,16.95
2023-03-20T20:16:53.963Z,16.67
2023-03-20T20:20:40.793Z,15.38
2023-03-20T20:24:16.227Z,14.28
2023-03-20T20:27:45.354Z,14.12
2023-03-20T20:31:24.616Z,15.27
2023-03-20T20:38:48.869Z,16.42
2023-03-20T20:42:17.233Z,16.29
2023-03-20T20:45:53.884Z,15.03
2023-03-20T20:49:43.061Z,13.98
2023-03-20T20:53:02.134Z,13.83
2023-03-20T20:56:50.077Z,14.95
2023-03-20T21:00:49.465Z,15.69
2023-03-20T21:04:29.630Z,16.16
2023-03-20T21:08:07.327Z,15.97
2023-03-20T21:11:47.490Z,14.75
2023-03-20T21:15:35.536Z,13.77
2023-03-20T21:19:24.911Z,13.66
2023-03-20T21:22:59.356Z,14.88
2023-03-20T21:26:42.258Z,15.69
2023-03-20T21:30:15.655Z,16.26
2023-03-20T21:33:40.168Z,16.75
2023-03-20T21:41:05.282Z,15.36
2023-03-20T21:45:35.706Z,14.49
2023-03-20T21:49:40.055Z,13.69
2023-03-20T21:57:07.969Z,15.26
2023-03-20T22:01:14.159Z,16.07
2023-03-20T22:05:02.053Z,16.60
2023-03-20T22:12:23.045Z,15.25
2023-03-20T22:20:19.619Z,14.22
2023-03-20T22:24:17.205Z,15.49
2023-03-20T22:31:47.112Z,16.85
2023-03-20T22:35:51.790Z,16.71
2023-03-20T22:39:22.094Z,15.48
2023-03-20T22:43:05.842Z,14.49
2023-03-20T22:46:44.890Z,13.75
2023-03-20T22:50:19.955Z,13.86
2023-03-20T22:53:41.055Z,15.25
2023-03-20T22:57:01.967Z,16.12
2023-03-20T23:00:25.648Z,16.67
2023-03-20T23:03:56.680Z,17.09
2023-03-20T23:07:22.401Z,17.03
2023-03-20T23:10:47.816Z,15.82
2023-03-20T23:14:08.740Z,14.94
2023-03-20T23:17:33.877Z,14.19
2023-03-20T23:20:51.154Z,14.12
2023-03-20T23:24:18.307Z,15.29
2023-03-20T23:27:50.002Z,16.07
2023-03-20T23:31:07.609Z,16.53
2023-03-20T23:34:31.683Z,16.93
2023-03-20T23:38:11.431Z,16.74
2023-03-20T23:42:12.169Z,15.51
2023-03-20T23:45:43.145Z,14.45
2023-03-20T23:49:12.830Z,14.29
2023-03-20T23:52:38.386Z,15.35
2023-03-20T23:55:57.821Z,16.05
2023-03-20T23:59:37.675Z,16.40
